createdAt,value
2018-12-22T00:00:44.320Z,87.2
2018-12-22T00:01:44.234Z,87.1
2018-12-22T00:02:44.362Z,87.5
2018-12-22T00:03:44.516Z,87.6
2018-12-22T00:04:44.396Z,88.1
2018-12-22T00:05:47.688Z,87.9
2018-12-22T00:06:47.614Z,88.2
2018-12-22T00:07:47.512Z,88.2
2018-12-22T00:08:48.110Z,87.6
2018-12-22T00:09:48.121Z,86.7
2018-12-22T00:10:48.276Z,87.4
2018-12-22T00:11:48.185Z,87.8
2018-12-22T00:12:48.087Z,87.5
2018-12-22T00:13:47.992Z,87.6
2018-12-22T00:14:47.904Z,87.6
2018-12-22T00:15:48.221Z,87.4
2018-12-22T00:16:48.112Z,87.6
2018-12-22T00:17:51.056Z,87.3
2018-12-22T00:18:51.063Z,87.6
2018-12-22T00:19:50.955Z,87.6
2018-12-22T00:20:53.592Z,87.4
2018-12-22T00:21:56.198Z,87.3
2018-12-22T00:22:56.116Z,88.1
2018-12-22T00:23:56.018Z,88.5
2018-12-22T00:24:56.264Z,88.1
2018-12-22T00:25:56.626Z,88.9
2018-12-22T00:26:56.530Z,88.9
2018-12-22T00:27:57.466Z,89.1
2018-12-22T00:28:57.370Z,89
2018-12-22T00:29:57.266Z,89.3
2018-12-22T00:30:57.153Z,89.3
2018-12-22T00:31:57.033Z,89.7
2018-12-22T00:32:56.984Z,88.9
2018-12-22T00:33:56.991Z,89.5
2018-12-22T00:34:56.881Z,89.2
2018-12-22T00:35:57.215Z,89
2018-12-22T00:36:57.115Z,89
2018-12-22T00:37:57.003Z,88
2018-12-22T00:38:56.990Z,88.4
2018-12-22T00:39:56.867Z,89.2
2018-12-22T00:40:56.773Z,88.5
2018-12-22T00:41:56.653Z,89.6
2018-12-22T00:42:56.615Z,89.6
2018-12-22T00:43:59.579Z,89.4
2018-12-22T00:45:02.468Z,90
2018-12-22T00:46:02.746Z,89.2
2018-12-22T00:47:02.643Z,88.7
2018-12-22T00:48:02.574Z,89
2018-12-22T00:49:02.506Z,89.2
2018-12-22T00:50:02.402Z,89.3
2018-12-22T00:51:02.314Z,89.7
2018-12-22T00:52:02.239Z,89.4
2018-12-22T00:53:02.124Z,89.4
2018-12-22T00:54:02.034Z,90
2018-12-22T00:55:01.990Z,89.6
2018-12-22T00:56:03.368Z,89.6
2018-12-22T00:57:03.278Z,89.4
2018-12-22T00:58:04.442Z,89.4
2018-12-22T00:59:04.346Z,89
2018-12-22T01:00:04.259Z,89.3
2018-12-22T01:01:04.371Z,89.4
2018-12-22T01:02:04.258Z,89.2
2018-12-22T01:03:04.169Z,88.7
2018-12-22T01:04:04.073Z,88.5
2018-12-22T01:05:03.970Z,87.8
2018-12-22T01:06:04.967Z,88.1
2018-12-22T01:07:04.853Z,87.4
2018-12-22T01:08:04.744Z,87.6
2018-12-22T01:09:07.461Z,87.2
2018-12-22T01:10:07.378Z,86.8
2018-12-22T01:11:10.227Z,87.6
2018-12-22T01:12:10.213Z,87.3
2018-12-22T01:13:10.113Z,86.7
2018-12-22T01:14:11.082Z,87.2
2018-12-22T01:15:10.994Z,87.3
2018-12-22T01:16:11.299Z,87.7
2018-12-22T01:17:12.322Z,87.6
2018-12-22T01:18:12.218Z,87.5
2018-12-22T01:19:12.289Z,87.3
2018-12-22T01:20:12.209Z,87.6
2018-12-22T01:21:12.114Z,88.1
2018-12-22T01:22:12.247Z,87.9
2018-12-22T01:23:12.143Z,87.4
2018-12-22T01:24:12.034Z,87.4
2018-12-22T01:25:11.952Z,87.7
2018-12-22T01:26:12.506Z,87.8
2018-12-22T01:27:12.394Z,87.8
2018-12-22T01:28:12.286Z,87.5
2018-12-22T01:29:12.172Z,87.5
2018-12-22T01:30:14.980Z,87.5
2018-12-22T01:31:15.922Z,87.3
2018-12-22T01:32:15.813Z,87.5
2018-12-22T01:33:15.696Z,87.2
2018-12-22T01:34:18.944Z,87.3
2018-12-22T01:35:18.851Z,87.3
2018-12-22T01:36:19.401Z,87.4
2018-12-22T01:37:28.263Z,87.2
2018-12-22T01:38:28.148Z,87.4
2018-12-22T01:39:28.034Z,87.2
2018-12-22T01:40:30.850Z,87.2
2018-12-22T01:41:30.762Z,87.2
2018-12-22T01:42:30.772Z,86.7
2018-12-22T01:43:30.672Z,87.3
2018-12-22T01:44:30.816Z,87.2
2018-12-22T01:45:30.711Z,87
2018-12-22T01:46:34.025Z,86.6
2018-12-22T01:47:33.979Z,87
2018-12-22T01:48:33.864Z,86.9
2018-12-22T01:49:33.810Z,86.9
2018-12-22T01:50:33.687Z,86.6
2018-12-22T01:51:33.571Z,86.7
2018-12-22T01:52:33.487Z,86.5
2018-12-22T01:53:33.362Z,86.3
2018-12-22T01:54:33.266Z,85.9
2018-12-22T01:55:33.154Z,86
2018-12-22T01:56:33.711Z,86
2018-12-22T01:57:33.857Z,85.6
2018-12-22T01:58:34.844Z,85.5
2018-12-22T01:59:34.742Z,85.3
2018-12-22T02:00:34.633Z,85.2
2018-12-22T02:01:34.527Z,85
2018-12-22T02:02:34.429Z,84.7
2018-12-22T02:03:35.388Z,84.6
2018-12-22T02:04:35.272Z,84
2018-12-22T02:05:35.160Z,83.3
2018-12-22T02:06:35.690Z,82.7
2018-12-22T02:07:35.629Z,82.6
2018-12-22T02:08:35.764Z,82.6
2018-12-22T02:09:35.667Z,82.4
2018-12-22T02:10:35.786Z,81.8
2018-12-22T02:11:44.391Z,81.7
2018-12-22T02:12:44.299Z,81.9
2018-12-22T02:13:44.226Z,81.7
2018-12-22T02:14:44.110Z,81.7
2018-12-22T02:15:44.240Z,81.6
2018-12-22T02:16:44.804Z,81.6
2018-12-22T02:17:44.679Z,81.6
2018-12-22T02:18:45.117Z,81.6
2018-12-22T02:19:45.230Z,81.3
2018-12-22T02:20:45.153Z,81.3
2018-12-22T02:21:45.058Z,81.2
2018-12-22T02:22:44.964Z,81.2
2018-12-22T02:23:44.865Z,81.1
2018-12-22T02:24:45.042Z,81.1
2018-12-22T02:25:44.933Z,81
2018-12-22T02:26:45.338Z,80.8
2018-12-22T02:27:45.233Z,81.6
2018-12-22T02:28:45.119Z,80.7
2018-12-22T02:29:45.039Z,80.6
2018-12-22T02:30:44.975Z,80.5
2018-12-22T02:31:44.914Z,80.1
2018-12-22T02:32:45.169Z,79.8
2018-12-22T02:33:45.284Z,79.2
2018-12-22T02:34:45.229Z,78.8
2018-12-22T02:35:45.185Z,78.5
2018-12-22T02:36:45.749Z,78.1
2018-12-22T02:37:45.647Z,77.7
2018-12-22T02:38:45.762Z,77.4
2018-12-22T02:39:45.721Z,77.7
2018-12-22T02:40:45.635Z,77.3
2018-12-22T02:41:48.313Z,77.3
2018-12-22T02:42:48.357Z,77.1
2018-12-22T02:43:48.300Z,77
2018-12-22T02:44:51.389Z,76.9
2018-12-22T02:45:51.272Z,76.8
2018-12-22T02:46:51.617Z,77
2018-12-22T02:47:51.517Z,76.7
2018-12-22T02:48:54.060Z,76.4
2018-12-22T02:49:54.218Z,76.4
2018-12-22T02:50:54.117Z,76.3
2018-12-22T02:51:54.001Z,76.1
2018-12-22T02:52:54.119Z,75.5
2018-12-22T02:53:54.016Z,75.5
2018-12-22T02:54:53.913Z,75.2
2018-12-22T02:55:56.613Z,75.1
2018-12-22T02:56:56.943Z,74.8
2018-12-22T02:57:56.868Z,74.4
2018-12-22T02:59:06.654Z,74.6
2018-12-22T03:00:09.535Z,74.4
2018-12-22T03:01:09.457Z,74
2018-12-22T03:02:09.362Z,74.1
2018-12-22T03:03:12.065Z,74.3
2018-12-22T03:04:11.991Z,74.2
2018-12-22T03:05:11.924Z,74.4
2018-12-22T03:06:12.126Z,74.6
2018-12-22T03:07:12.460Z,74.7
2018-12-22T03:08:12.338Z,75
2018-12-22T03:09:12.271Z,74.9
2018-12-22T03:10:12.192Z,74.9
2018-12-22T03:11:12.110Z,75
2018-12-22T03:12:12.028Z,75.2
2018-12-22T03:13:11.945Z,75.4
2018-12-22T03:14:11.953Z,75.4
2018-12-22T03:15:12.100Z,75
2018-12-22T03:16:12.002Z,74.9
2018-12-22T03:17:12.614Z,74.8
2018-12-22T03:18:12.752Z,74.8
2018-12-22T03:19:12.648Z,74.5
2018-12-22T03:20:12.570Z,74.5
2018-12-22T03:21:12.477Z,74.5
2018-12-22T03:22:15.196Z,74.1
2018-12-22T03:23:15.083Z,74.4
2018-12-22T03:24:14.975Z,74.3
2018-12-22T03:25:14.862Z,74.7
2018-12-22T03:26:15.008Z,74.9
2018-12-22T03:27:15.362Z,75
2018-12-22T03:28:15.955Z,75.1
2018-12-22T03:29:16.744Z,75.1
2018-12-22T03:30:16.691Z,75.1
2018-12-22T03:31:16.855Z,75
2018-12-22T03:32:16.814Z,75
2018-12-22T03:33:16.765Z,74.9
2018-12-22T03:34:16.882Z,74.8
2018-12-22T03:35:16.762Z,74.7
2018-12-22T03:36:16.671Z,74.8
2018-12-22T03:37:17.032Z,74.8
2018-12-22T03:38:16.980Z,74.5
2018-12-22T03:39:19.892Z,74.7
2018-12-22T03:40:19.790Z,74.5
2018-12-22T03:41:19.684Z,74.2
2018-12-22T03:42:19.572Z,74.4
2018-12-22T03:43:25.265Z,74.2
2018-12-22T03:44:25.205Z,74
2018-12-22T03:45:25.152Z,74.2
2018-12-22T03:46:26.082Z,74.1
2018-12-22T03:47:26.414Z,73.4
2018-12-22T03:48:26.333Z,73.7
2018-12-22T03:49:26.460Z,73.4
2018-12-22T03:50:26.350Z,73.2
2018-12-22T03:51:26.232Z,72.8
2018-12-22T03:52:26.346Z,72.5
2018-12-22T03:53:26.330Z,72.3
2018-12-22T03:54:26.235Z,72.2
2018-12-22T03:55:26.384Z,71.7
2018-12-22T03:56:26.284Z,71.6
2018-12-22T03:57:27.626Z,71.7
2018-12-22T03:58:27.505Z,71.8
2018-12-22T03:59:27.474Z,71.3
2018-12-22T04:00:27.610Z,71.3
2018-12-22T04:01:27.500Z,70.5
2018-12-22T04:02:27.398Z,71.3
2018-12-22T04:03:27.422Z,70.9
2018-12-22T04:04:27.792Z,71
2018-12-22T04:05:27.805Z,71
2018-12-22T04:06:27.732Z,70.4
2018-12-22T04:07:30.979Z,71
2018-12-22T04:08:30.893Z,71.2
2018-12-22T04:09:30.799Z,71.3
2018-12-22T04:10:37.010Z,71.5
2018-12-22T04:11:36.906Z,71.9
2018-12-22T04:12:36.814Z,72.5
2018-12-22T04:13:37.416Z,72.9
2018-12-22T04:14:37.312Z,73.6
2018-12-22T04:15:41.256Z,74.9
2018-12-22T04:16:41.186Z,76.5
2018-12-22T04:17:41.748Z,75.7
2018-12-22T04:18:41.631Z,75.8
2018-12-22T04:19:41.543Z,76.2
2018-12-22T04:20:41.471Z,76.5
2018-12-22T04:21:41.365Z,76.7
2018-12-22T04:22:44.255Z,76.7
2018-12-22T04:23:44.385Z,76.6
2018-12-22T04:24:44.290Z,76.3
2018-12-22T04:25:44.408Z,76.4
2018-12-22T04:26:44.363Z,76.3
2018-12-22T04:27:44.902Z,75.8
2018-12-22T04:28:44.804Z,75.6
2018-12-22T04:29:44.731Z,76.4
2018-12-22T04:30:47.581Z,75.6
2018-12-22T04:31:47.705Z,75.7
2018-12-22T04:32:47.595Z,74.7
2018-12-22T04:33:47.488Z,74.6
2018-12-22T04:34:48.067Z,74.5
2018-12-22T04:35:47.994Z,73.9
2018-12-22T04:36:47.912Z,73.7
2018-12-22T04:37:49.229Z,73.3
2018-12-22T04:38:49.130Z,73
2018-12-22T04:39:57.960Z,72.9
2018-12-22T04:40:57.872Z,72.5
2018-12-22T04:41:57.943Z,72.5
2018-12-22T04:43:06.843Z,72.2
2018-12-22T04:44:06.800Z,71.6
2018-12-22T04:45:06.848Z,71.6
2018-12-22T04:46:06.734Z,71.2
2018-12-22T04:47:06.759Z,71
2018-12-22T04:48:07.091Z,71.7
2018-12-22T04:49:06.989Z,70.8
2018-12-22T04:50:06.897Z,70.4
2018-12-22T04:51:06.789Z,70.5
2018-12-22T04:52:06.997Z,70.4
2018-12-22T04:53:06.918Z,69.8
2018-12-22T04:54:06.833Z,69.5
2018-12-22T04:55:06.978Z,69.1
2018-12-22T04:56:06.869Z,69.4
2018-12-22T04:57:06.760Z,69.1
2018-12-22T04:58:12.751Z,69
2018-12-22T04:59:12.670Z,68.9
2018-12-22T05:00:12.557Z,69.1
2018-12-22T05:01:12.441Z,69
2018-12-22T05:02:12.329Z,69.1
2018-12-22T05:03:12.240Z,68.9
2018-12-22T05:04:12.130Z,68.6
2018-12-22T05:05:12.034Z,68.2
2018-12-22T05:06:12.930Z,68.5
2018-12-22T05:07:12.837Z,68.5
2018-12-22T05:08:13.428Z,68.4
2018-12-22T05:09:13.382Z,68.4
2018-12-22T05:10:13.286Z,68.2
2018-12-22T05:11:16.187Z,67.8
2018-12-22T05:12:16.075Z,67.8
2018-12-22T05:13:16.011Z,68
2018-12-22T05:14:16.163Z,67.8
2018-12-22T05:15:16.292Z,67.8
2018-12-22T05:16:16.193Z,68.1
2018-12-22T05:17:17.123Z,68.2
2018-12-22T05:18:17.463Z,67.7
2018-12-22T05:19:17.349Z,67
2018-12-22T05:20:20.251Z,67.6
2018-12-22T05:21:20.281Z,67.2
2018-12-22T05:22:20.174Z,67.4
2018-12-22T05:23:23.914Z,67.6
2018-12-22T05:24:23.786Z,67.5
2018-12-22T05:25:23.801Z,67.6
2018-12-22T05:26:23.910Z,67.2
2018-12-22T05:27:23.910Z,67.1
2018-12-22T05:28:24.495Z,67
2018-12-22T05:29:24.394Z,67.3
2018-12-22T05:30:24.438Z,67.3
2018-12-22T05:31:28.319Z,66.9
2018-12-22T05:32:28.206Z,66.4
2018-12-22T05:33:28.402Z,66.3
2018-12-22T05:34:28.306Z,65.8
2018-12-22T05:35:28.208Z,65.7
2018-12-22T05:36:28.331Z,65
2018-12-22T05:37:28.224Z,65.6
2018-12-22T05:38:31.620Z,65.3
2018-12-22T05:39:31.523Z,65.5
2018-12-22T05:40:31.420Z,65.2
2018-12-22T05:41:31.332Z,65.2
2018-12-22T05:42:31.234Z,64.7
2018-12-22T05:43:33.970Z,64.7
2018-12-22T05:44:33.868Z,64.5
2018-12-22T05:45:33.822Z,63.7
2018-12-22T05:46:36.365Z,64.4
2018-12-22T05:47:36.552Z,64.8
2018-12-22T05:48:36.891Z,63.6
2018-12-22T05:49:36.785Z,63.8
2018-12-22T05:50:36.674Z,63.8
2018-12-22T05:51:36.565Z,63.6
2018-12-22T05:52:36.676Z,63.2
2018-12-22T05:53:36.570Z,62.9
2018-12-22T05:54:36.472Z,62.7
2018-12-22T05:55:36.596Z,63.1
2018-12-22T05:56:36.605Z,63
2018-12-22T05:57:36.478Z,62.5
2018-12-22T05:58:39.846Z,62.1
2018-12-22T05:59:39.756Z,62.1
2018-12-22T06:00:39.656Z,61.4
2018-12-22T06:01:39.564Z,61.8
2018-12-22T06:02:39.438Z,61.8
2018-12-22T06:03:39.322Z,61.7
2018-12-22T06:04:39.243Z,61.6
2018-12-22T06:05:39.365Z,61.4
2018-12-22T06:06:39.244Z,61.7
2018-12-22T06:07:39.132Z,61.8
2018-12-22T06:08:39.446Z,61.2
2018-12-22T06:09:39.604Z,61.7
2018-12-22T06:10:39.508Z,62
2018-12-22T06:11:39.400Z,62
2018-12-22T06:12:39.284Z,62.1
2018-12-22T06:13:39.274Z,62.1
2018-12-22T06:14:39.404Z,61.8
2018-12-22T06:15:39.311Z,61.6
2018-12-22T06:16:39.201Z,61.4
2018-12-22T06:17:41.990Z,61.3
2018-12-22T06:18:42.322Z,61.2
2018-12-22T06:19:45.096Z,61.3
2018-12-22T06:20:45.705Z,61.6
2018-12-22T06:21:45.576Z,61.5
2018-12-22T06:22:46.150Z,61.8
2018-12-22T06:23:46.048Z,61.4
2018-12-22T06:24:45.956Z,61.6
2018-12-22T06:25:45.881Z,61.7
2018-12-22T06:26:45.796Z,61.7
2018-12-22T06:27:45.692Z,61.7
2018-12-22T06:28:46.011Z,62.2
2018-12-22T06:29:48.877Z,61.9
2018-12-22T06:30:48.774Z,61.8
2018-12-22T06:31:48.675Z,62.1
2018-12-22T06:32:48.790Z,62.1
2018-12-22T06:33:48.676Z,61.8
2018-12-22T06:34:48.782Z,61.4
2018-12-22T06:35:48.666Z,62
2018-12-22T06:36:48.672Z,61.5
2018-12-22T06:37:48.588Z,61.4
2018-12-22T06:38:48.920Z,61.7
2018-12-22T06:39:48.806Z,61.8
2018-12-22T06:40:48.932Z,62
2018-12-22T06:41:48.828Z,62
2018-12-22T06:42:48.734Z,62
2018-12-22T06:43:48.629Z,62
2018-12-22T06:44:48.535Z,62.1
2018-12-22T06:45:48.452Z,62.1
2018-12-22T06:46:48.595Z,62
2018-12-22T06:47:48.499Z,61.9
2018-12-22T06:48:48.828Z,62.2
2018-12-22T06:49:48.713Z,62.2
2018-12-22T06:50:48.593Z,62.3
2018-12-22T06:51:48.494Z,62
2018-12-22T06:52:48.407Z,62.3
2018-12-22T06:53:48.586Z,61.4
2018-12-22T06:54:48.465Z,61.1
2018-12-22T06:55:48.365Z,61.6
2018-12-22T06:56:50.926Z,61.2
2018-12-22T06:57:51.054Z,60.5
2018-12-22T06:58:51.359Z,60.5
2018-12-22T06:59:52.939Z,60.8
2018-12-22T07:00:52.871Z,60.9
2018-12-22T07:01:52.791Z,61.1
2018-12-22T07:02:52.927Z,61.4
2018-12-22T07:03:52.816Z,61
2018-12-22T07:04:52.701Z,61.2
2018-12-22T07:05:53.304Z,61.5
2018-12-22T07:06:53.193Z,61.6
2018-12-22T07:07:53.211Z,61.3
2018-12-22T07:08:53.942Z,60.9
2018-12-22T07:09:53.831Z,62.2
2018-12-22T07:10:56.523Z,60.9
2018-12-22T07:11:56.413Z,60.8
2018-12-22T07:12:56.313Z,61
2018-12-22T07:13:56.429Z,61.1
2018-12-22T07:14:57.127Z,61.2
2018-12-22T07:15:57.011Z,61.3
2018-12-22T07:16:57.131Z,61.9
2018-12-22T07:17:57.309Z,61.7
2018-12-22T07:18:57.630Z,62.1
2018-12-22T07:19:57.546Z,62
2018-12-22T07:20:57.428Z,62
2018-12-22T07:21:57.327Z,62.1
2018-12-22T07:22:57.215Z,62.1
2018-12-22T07:23:57.130Z,62.3
2018-12-22T07:24:57.249Z,62.2
2018-12-22T07:25:57.136Z,62.4
2018-12-22T07:26:57.029Z,62.6
2018-12-22T07:27:57.594Z,62.9
2018-12-22T07:28:57.951Z,62.8
2018-12-22T07:29:57.873Z,63.3
2018-12-22T07:30:57.759Z,64.1
2018-12-22T07:31:57.658Z,63.6
2018-12-22T07:32:58.209Z,63.8
2018-12-22T07:34:00.696Z,63.9
2018-12-22T07:35:00.993Z,64.4
2018-12-22T07:36:00.883Z,64.9
2018-12-22T07:37:01.021Z,65.3
2018-12-22T07:38:01.008Z,66.1
2018-12-22T07:39:02.581Z,66.5
2018-12-22T07:40:02.480Z,66.9
2018-12-22T07:41:02.378Z,67.1
2018-12-22T07:42:02.278Z,67.4
2018-12-22T07:43:02.237Z,67.7
2018-12-22T07:44:02.150Z,68.2
2018-12-22T07:45:03.080Z,68.6
2018-12-22T07:46:02.983Z,69.1
2018-12-22T07:47:02.874Z,69.6
2018-12-22T07:48:05.776Z,70.6
2018-12-22T07:49:06.101Z,71.5
2018-12-22T07:50:05.992Z,72.4
2018-12-22T07:51:06.894Z,72.6
2018-12-22T07:52:06.793Z,73
2018-12-22T07:53:06.689Z,73.1
2018-12-22T07:54:06.811Z,73.2
2018-12-22T07:55:06.687Z,73.6
2018-12-22T07:56:06.660Z,74
2018-12-22T07:57:06.547Z,74.3
2018-12-22T07:58:06.441Z,74.8
2018-12-22T07:59:06.767Z,74.8
2018-12-22T08:00:06.709Z,75
2018-12-22T08:01:06.589Z,75.6
2018-12-22T08:02:06.483Z,75.6
2018-12-22T08:03:06.386Z,75.6
2018-12-22T08:04:06.277Z,77.2
2018-12-22T08:05:06.401Z,77
2018-12-22T08:06:06.301Z,78
2018-12-22T08:07:06.878Z,79.2
2018-12-22T08:08:06.755Z,79.4
2018-12-22T08:09:07.341Z,80.1
2018-12-22T08:10:07.251Z,80.6
2018-12-22T08:11:07.193Z,81.4
2018-12-22T08:12:07.088Z,81
2018-12-22T08:13:07.026Z,81.3
2018-12-22T08:14:07.167Z,81.2
2018-12-22T08:15:07.192Z,81.4
2018-12-22T08:16:07.103Z,81.4
2018-12-22T08:17:07.009Z,81.4
2018-12-22T08:18:07.121Z,81.5
2018-12-22T08:19:07.671Z,81.2
2018-12-22T08:20:07.761Z,80.5
2018-12-22T08:21:07.691Z,81
2018-12-22T08:22:09.233Z,81
2018-12-22T08:23:09.111Z,80
2018-12-22T08:24:09.244Z,80.6
2018-12-22T08:25:09.129Z,80.1
2018-12-22T08:26:09.079Z,79.6
2018-12-22T08:27:08.968Z,79.3
2018-12-22T08:28:08.860Z,78.3
2018-12-22T08:29:09.219Z,78.7
2018-12-22T08:30:09.345Z,78.7
2018-12-22T08:31:09.255Z,78.2
2018-12-22T08:32:09.170Z,78.1
2018-12-22T08:33:09.069Z,78.1
2018-12-22T08:34:11.635Z,77.3
2018-12-22T08:35:11.527Z,77.4
2018-12-22T08:36:11.403Z,77.5
2018-12-22T08:37:12.014Z,77.6
2018-12-22T08:38:11.929Z,77.7
2018-12-22T08:39:12.261Z,77.6
2018-12-22T08:40:12.169Z,77.2
2018-12-22T08:41:12.067Z,77
2018-12-22T08:42:12.004Z,76.9
2018-12-22T08:43:13.026Z,77
2018-12-22T08:44:12.969Z,76.9
2018-12-22T08:45:12.880Z,76.9
2018-12-22T08:46:16.909Z,77
2018-12-22T08:47:16.839Z,77.2
2018-12-22T08:48:16.717Z,77
2018-12-22T08:49:17.269Z,76.8
2018-12-22T08:50:17.177Z,76.8
2018-12-22T08:51:17.081Z,77
2018-12-22T08:52:16.975Z,76.8
2018-12-22T08:53:16.888Z,76.7
2018-12-22T08:54:16.782Z,76.3
2018-12-22T08:55:16.681Z,76
2018-12-22T08:56:16.599Z,75.1
2018-12-22T08:57:16.715Z,74.8
2018-12-22T08:58:16.622Z,74.7
2018-12-22T08:59:16.959Z,74.9
2018-12-22T09:00:16.863Z,75.4
2018-12-22T09:01:16.755Z,75.4
2018-12-22T09:02:16.645Z,75.4
2018-12-22T09:03:16.553Z,75.3
2018-12-22T09:04:16.449Z,74.9
2018-12-22T09:05:16.337Z,74.9
2018-12-22T09:06:16.224Z,74.9
2018-12-22T09:07:16.109Z,74.6
2018-12-22T09:08:16.143Z,74.3
2018-12-22T09:09:16.587Z,73.7
2018-12-22T09:10:16.508Z,73.3
2018-12-22T09:11:19.181Z,73.2
2018-12-22T09:12:19.079Z,72.5
2018-12-22T09:13:21.673Z,72
2018-12-22T09:14:21.593Z,72.1
2018-12-22T09:15:21.491Z,71.6
2018-12-22T09:16:21.398Z,71.5
2018-12-22T09:17:21.455Z,70.5
2018-12-22T09:18:21.371Z,70.7
2018-12-22T09:19:21.720Z,71
2018-12-22T09:20:21.624Z,70.7
2018-12-22T09:21:21.517Z,70.7
2018-12-22T09:22:21.426Z,70.1
2018-12-22T09:23:21.379Z,69.6
2018-12-22T09:24:21.316Z,69.3
2018-12-22T09:25:21.209Z,69.3
2018-12-22T09:26:21.114Z,69.5
2018-12-22T09:27:21.010Z,69.7
2018-12-22T09:28:20.959Z,69.3
2018-12-22T09:29:21.487Z,69.3
2018-12-22T09:30:21.391Z,69
2018-12-22T09:31:21.269Z,68.5
2018-12-22T09:32:21.168Z,68.5
2018-12-22T09:33:21.098Z,68.5
2018-12-22T09:34:21.007Z,68.6
2018-12-22T09:35:20.905Z,68.6
2018-12-22T09:36:21.516Z,68.4
2018-12-22T09:37:21.472Z,68.4
2018-12-22T09:38:21.397Z,68.2
2018-12-22T09:39:22.443Z,68.1
2018-12-22T09:40:22.359Z,68.5
2018-12-22T09:41:22.250Z,68.2
2018-12-22T09:42:22.843Z,68.4
2018-12-22T09:43:22.758Z,68.1
2018-12-22T09:44:22.651Z,68.1
2018-12-22T09:45:22.587Z,67.6
2018-12-22T09:46:22.832Z,68.1
2018-12-22T09:47:22.843Z,67.7
2018-12-22T09:48:22.753Z,68.5
2018-12-22T09:49:23.321Z,69.8
2018-12-22T09:50:23.213Z,70.1
2018-12-22T09:51:23.825Z,70.8
2018-12-22T09:52:23.707Z,71.2
2018-12-22T09:53:23.574Z,71.8
2018-12-22T09:54:23.609Z,71.7
2018-12-22T09:55:23.534Z,72.7
2018-12-22T09:56:23.447Z,73
2018-12-22T09:57:23.366Z,73.2
2018-12-22T09:58:23.489Z,73
2018-12-22T09:59:23.815Z,73.4
2018-12-22T10:00:24.427Z,73.8
2018-12-22T10:01:24.332Z,73.8
2018-12-22T10:02:24.205Z,74.9
2018-12-22T10:03:24.352Z,75.3
2018-12-22T10:04:24.244Z,76.4
2018-12-22T10:05:24.132Z,76.6
2018-12-22T10:06:24.281Z,77.1
2018-12-22T10:07:24.163Z,78.1
2018-12-22T10:08:24.049Z,78.9
2018-12-22T10:09:24.622Z,79.2
2018-12-22T10:10:24.527Z,79.1
2018-12-22T10:11:24.435Z,78.9
2018-12-22T10:12:24.327Z,78.8
2018-12-22T10:13:24.203Z,78.9
2018-12-22T10:14:24.091Z,79
2018-12-22T10:15:24.094Z,78.4
2018-12-22T10:16:24.041Z,78.8
2018-12-22T10:17:23.963Z,78.7
2018-12-22T10:18:25.101Z,78.5
2018-12-22T10:19:25.451Z,79
2018-12-22T10:20:25.379Z,79.2
2018-12-22T10:21:25.508Z,79.2
2018-12-22T10:22:25.406Z,78.5
2018-12-22T10:23:25.299Z,78.3
2018-12-22T10:24:25.206Z,77.6
2018-12-22T10:25:25.096Z,79.2
2018-12-22T10:26:24.992Z,79.4
2018-12-22T10:27:24.895Z,79.1
2018-12-22T10:28:25.029Z,79.2
2018-12-22T10:29:25.387Z,78.9
2018-12-22T10:30:25.276Z,79.5
2018-12-22T10:31:25.171Z,79.3
2018-12-22T10:32:25.091Z,79.1
2018-12-22T10:33:24.967Z,79.2
2018-12-22T10:34:25.097Z,79.3
2018-12-22T10:35:25.025Z,79.4
2018-12-22T10:36:24.912Z,79.7
2018-12-22T10:37:24.828Z,79.9
2018-12-22T10:38:24.731Z,80.6
2018-12-22T10:39:25.146Z,80.6
2018-12-22T10:40:25.061Z,79.7
2018-12-22T10:41:24.948Z,80
2018-12-22T10:42:24.826Z,79.8
2018-12-22T10:43:24.789Z,80.1
2018-12-22T10:44:24.705Z,79.9
2018-12-22T10:45:24.595Z,80.3
2018-12-22T10:46:24.463Z,80.9
2018-12-22T10:47:25.051Z,81.3
2018-12-22T10:48:25.093Z,81.6
2018-12-22T10:49:25.429Z,82.2
2018-12-22T10:50:25.318Z,82.3
2018-12-22T10:51:25.311Z,82.5
2018-12-22T10:52:25.449Z,82
2018-12-22T10:53:25.575Z,82.2
2018-12-22T10:54:25.577Z,82.7
2018-12-22T10:55:25.485Z,82.7
2018-12-22T10:56:26.078Z,82.5
2018-12-22T10:58:25.891Z,82.7
2018-12-22T10:59:26.267Z,82.6
2018-12-22T11:00:26.153Z,81.8
2018-12-22T11:01:27.437Z,82.8
2018-12-22T11:02:27.355Z,81.8
2018-12-22T11:03:27.263Z,82.7
2018-12-22T11:04:27.169Z,81.8
2018-12-22T11:05:27.065Z,82.4
2018-12-22T11:06:26.961Z,82.5
2018-12-22T11:07:26.867Z,82.1
2018-12-22T11:08:26.755Z,81.2
2018-12-22T11:09:27.166Z,81.8
2018-12-22T11:10:27.077Z,82
2018-12-22T11:11:26.969Z,82
2018-12-22T11:12:26.869Z,82
2018-12-22T11:13:26.787Z,82.4
2018-12-22T11:14:26.693Z,81.9
2018-12-22T11:15:26.614Z,82.1
2018-12-22T11:16:26.509Z,82.8
2018-12-22T11:17:26.409Z,82.4
2018-12-22T11:18:26.300Z,82.8
2018-12-22T11:19:26.597Z,83.4
2018-12-22T11:20:26.522Z,83.7
2018-12-22T11:21:26.429Z,83.6
2018-12-22T11:22:26.322Z,83.6
2018-12-22T11:23:26.215Z,83.8
2018-12-22T11:24:26.112Z,83.7
2018-12-22T11:25:26.023Z,83.9
2018-12-22T11:26:26.019Z,84
2018-12-22T11:27:26.099Z,84
2018-12-22T11:28:25.985Z,84.3
2018-12-22T11:29:26.296Z,84.3
2018-12-22T11:30:26.189Z,84.8
2018-12-22T11:31:34.787Z,83.7
2018-12-22T11:32:35.240Z,83.6
2018-12-22T11:33:35.144Z,83.5
2018-12-22T11:34:35.030Z,83.4
2018-12-22T11:35:34.921Z,83.4
2018-12-22T11:36:34.855Z,83.6
2018-12-22T11:37:34.789Z,83.2
2018-12-22T11:38:34.705Z,83.1
2018-12-22T11:39:35.060Z,82.3
2018-12-22T11:40:35.079Z,82.3
2018-12-22T11:41:35.595Z,82.1
2018-12-22T11:42:35.864Z,81.8
2018-12-22T11:43:35.763Z,81.7
2018-12-22T11:44:35.685Z,82.1
2018-12-22T11:45:35.839Z,82.3
2018-12-22T11:46:35.771Z,82.7
2018-12-22T11:47:37.348Z,83
2018-12-22T11:48:37.237Z,83.2
2018-12-22T11:49:37.576Z,83.6
2018-12-22T11:50:37.479Z,83.9
2018-12-22T11:51:37.405Z,84.1
2018-12-22T11:52:39.631Z,84.3
2018-12-22T11:53:39.521Z,84.6
2018-12-22T11:54:39.406Z,84
2018-12-22T11:55:39.379Z,84.5
2018-12-22T11:56:39.409Z,84.5
2018-12-22T11:57:39.311Z,84.8
2018-12-22T11:58:39.242Z,85
2018-12-22T11:59:39.548Z,84.9
2018-12-22T12:00:39.467Z,85.6
2018-12-22T12:01:44.365Z,85.9
2018-12-22T12:02:44.267Z,86.1
2018-12-22T12:03:44.163Z,86.5
2018-12-22T12:04:44.078Z,86.6
2018-12-22T12:05:43.977Z,86.7
2018-12-22T12:06:43.881Z,86.7
2018-12-22T12:07:43.813Z,86.7
2018-12-22T12:08:43.717Z,85.9
2018-12-22T12:09:44.113Z,85.8
2018-12-22T12:10:44.035Z,85.3
2018-12-22T12:11:43.953Z,84.4
2018-12-22T12:12:43.863Z,83.8
2018-12-22T12:13:43.778Z,83.7
2018-12-22T12:14:43.641Z,84
2018-12-22T12:15:43.637Z,83.5
2018-12-22T12:16:43.545Z,83.7
2018-12-22T12:17:43.473Z,83.9
2018-12-22T12:18:43.372Z,83.2
2018-12-22T12:19:43.695Z,83.1
2018-12-22T12:20:43.603Z,82.5
2018-12-22T12:21:43.506Z,82
2018-12-22T12:22:43.405Z,81.7
2018-12-22T12:23:43.315Z,81.8
2018-12-22T12:24:43.207Z,81.8
2018-12-22T12:25:43.116Z,81.1
2018-12-22T12:26:43.027Z,81.1
2018-12-22T12:27:42.901Z,81.3
2018-12-22T12:28:42.818Z,81.3
2018-12-22T12:29:43.174Z,80.7
2018-12-22T12:30:43.059Z,80.4
2018-12-22T12:31:42.953Z,80.7
2018-12-22T12:32:42.847Z,80.6
2018-12-22T12:33:42.729Z,80
2018-12-22T12:34:42.637Z,79.6
2018-12-22T12:35:42.607Z,79.7
2018-12-22T12:36:43.057Z,79.8
2018-12-22T12:37:43.144Z,80.1
2018-12-22T12:38:43.258Z,79.7
2018-12-22T12:39:43.602Z,80.1
2018-12-22T12:40:43.674Z,79.7
2018-12-22T12:41:46.479Z,79.3
2018-12-22T12:42:46.366Z,79.6
2018-12-22T12:43:46.380Z,79.5
2018-12-22T12:44:47.796Z,79.7
2018-12-22T12:45:47.701Z,79.8
2018-12-22T12:46:47.697Z,79.9
2018-12-22T12:47:47.900Z,79.6
2018-12-22T12:48:47.797Z,80
2018-12-22T12:49:48.150Z,80
2018-12-22T12:50:48.583Z,80.3
2018-12-22T12:51:48.488Z,80
2018-12-22T12:52:48.372Z,80.2
2018-12-22T12:53:48.282Z,79.3
2018-12-22T12:54:48.191Z,79.8
2018-12-22T12:55:48.099Z,79.7
2018-12-22T12:56:48.004Z,79.3
2018-12-22T12:57:48.362Z,78.5
2018-12-22T12:58:48.250Z,78.1
2018-12-22T12:59:48.667Z,78.7
2018-12-22T13:00:48.597Z,78.8
2018-12-22T13:01:48.593Z,78.5
2018-12-22T13:02:48.490Z,78.5
2018-12-22T13:03:48.392Z,78.6
2018-12-22T13:04:48.284Z,78.5
2018-12-22T13:05:57.034Z,78.3
2018-12-22T13:06:56.985Z,78.6
2018-12-22T13:07:57.107Z,78.7
2018-12-22T13:08:57.307Z,79
2018-12-22T13:09:57.934Z,78.8
2018-12-22T13:11:01.918Z,79.1
2018-12-22T13:12:01.800Z,78.6
2018-12-22T13:13:01.712Z,79.2
2018-12-22T13:14:01.630Z,79.1
2018-12-22T13:15:01.566Z,78.7
2018-12-22T13:16:01.448Z,78.7
2018-12-22T13:17:01.584Z,78.5
2018-12-22T13:18:01.879Z,78.4
2018-12-22T13:19:01.972Z,78.5
2018-12-22T13:20:02.843Z,77.6
2018-12-22T13:21:03.068Z,78.9
2018-12-22T13:22:03.056Z,77.3
2018-12-22T13:23:03.315Z,78
2018-12-22T13:24:03.538Z,77.7
2018-12-22T13:25:03.694Z,77.6
2018-12-22T13:26:03.642Z,77.1
2018-12-22T13:27:03.907Z,77.9
2018-12-22T13:28:03.917Z,77
2018-12-22T13:29:03.853Z,77.5
2018-12-22T13:30:04.201Z,76.9